createdAt,value
2022-09-09T00:02:35.652Z,13.80
2022-09-09T00:07:58.311Z,14.00
2022-09-09T00:13:25.413Z,13.70
2022-09-09T00:19:01.018Z,13.70
2022-09-09T00:24:36.742Z,13.60
2022-09-09T00:29:47.891Z,13.70
2022-09-09T00:35:08.086Z,13.60
2022-09-09T00:40:28.913Z,13.60
2022-09-09T00:46:11.226Z,13.60
2022-09-09T00:51:22.451Z,13.70
2022-09-09T00:56:43.852Z,13.70
2022-09-09T01:01:53.466Z,13.60
2022-09-09T01:07:06.642Z,13.50
2022-09-09T01:12:30.734Z,13.40
2022-09-09T01:18:04.316Z,13.30
2022-09-09T01:23:50.462Z,13.60
2022-09-09T01:28:58.462Z,13.40
2022-09-09T01:34:07.023Z,13.40
2022-09-09T01:39:16.011Z,13.50
2022-09-09T01:44:25.334Z,13.10
2022-09-09T01:49:34.208Z,13.20
2022-09-09T01:54:42.302Z,13.10
2022-09-09T02:00:11.061Z,13.30
2022-09-09T02:05:31.121Z,13.40
2022-09-09T02:11:11.029Z,13.20
2022-09-09T02:16:33.883Z,13.40
2022-09-09T02:21:41.050Z,13.60
2022-09-09T02:26:53.497Z,13.50
2022-09-09T02:32:04.553Z,13.50
2022-09-09T02:37:13.758Z,13.50
2022-09-09T02:42:21.459Z,13.40
2022-09-09T02:47:49.295Z,13.50
2022-09-09T02:53:18.837Z,13.50
2022-09-09T02:58:27.690Z,13.50
2022-09-09T03:03:35.846Z,13.60
2022-09-09T03:08:49.265Z,13.60
2022-09-09T03:13:51.572Z,13.70
2022-09-09T03:18:58.279Z,13.80
2022-09-09T03:24:05.366Z,13.70
2022-09-09T03:29:13.629Z,13.50
2022-09-09T03:34:20.939Z,13.60
2022-09-09T03:39:27.621Z,13.70
2022-09-09T03:44:34.310Z,13.60
2022-09-09T03:49:40.975Z,13.60
2022-09-09T03:54:47.662Z,13.70
2022-09-09T03:59:54.344Z,13.70
2022-09-09T04:05:01.067Z,13.90
2022-09-09T04:10:10.450Z,14.00
2022-09-09T04:15:17.158Z,14.00
2022-09-09T04:20:23.998Z,14.00
2022-09-09T04:25:31.257Z,13.80
2022-09-09T04:30:37.933Z,13.80
2022-09-09T04:35:54.253Z,13.90
2022-09-09T04:41:01.180Z,13.90
2022-09-09T04:46:08.814Z,14.00
2022-09-09T04:51:17.941Z,13.90
2022-09-09T04:56:24.742Z,14.00
2022-09-09T05:01:31.407Z,13.90
2022-09-09T05:06:39.049Z,14.10
2022-09-09T05:11:45.714Z,13.90
2022-09-09T05:16:52.912Z,14.00
2022-09-09T05:22:00.120Z,13.90
2022-09-09T05:27:07.311Z,13.90
2022-09-09T05:32:15.696Z,13.80
2022-09-09T05:37:22.474Z,13.60
2022-09-09T05:42:33.887Z,13.60
2022-09-09T05:47:40.569Z,13.70
2022-09-09T05:52:47.245Z,13.90
2022-09-09T05:57:53.941Z,14.10
2022-09-09T06:03:00.740Z,14.20
2022-09-09T06:08:09.255Z,14.50
2022-09-09T06:13:15.997Z,14.60
2022-09-09T06:18:23.418Z,14.60
2022-09-09T06:23:31.469Z,14.70
2022-09-09T06:28:40.074Z,15.00
2022-09-09T06:33:47.987Z,15.20
2022-09-09T06:38:55.673Z,15.20
2022-09-09T06:44:02.496Z,15.40
2022-09-09T06:49:10.211Z,15.60
2022-09-09T06:54:17.893Z,15.80
2022-09-09T06:59:24.911Z,15.70
2022-09-09T07:04:31.615Z,15.70
2022-09-09T07:09:38.301Z,15.90
2022-09-09T07:14:44.986Z,15.90
2022-09-09T07:20:02.655Z,15.90
2022-09-09T07:31:40.466Z,16.00
2022-09-09T07:36:48.111Z,16.10
2022-09-09T07:41:56.492Z,16.10
2022-09-09T07:47:03.710Z,16.20
2022-09-09T07:52:10.481Z,16.20
2022-09-09T07:57:19.607Z,16.20
2022-09-09T08:02:30.554Z,16.20
2022-09-09T08:07:37.170Z,16.00
2022-09-09T08:13:01.393Z,15.80
2022-09-09T08:17:52.270Z,16.10
2022-09-09T08:23:00.238Z,16.00
2022-09-09T08:28:07.445Z,16.00
2022-09-09T08:33:14.113Z,16.20
2022-09-09T08:38:22.028Z,16.10
2022-09-09T08:43:30.827Z,16.40
2022-09-09T08:48:50.777Z,16.30
2022-09-09T08:54:01.720Z,16.10
2022-09-09T08:59:10.113Z,15.80
2022-09-09T09:05:05.953Z,15.50
2022-09-09T09:10:52.299Z,15.40
2022-09-09T09:16:19.617Z,14.90
2022-09-09T09:21:39.593Z,14.90
2022-09-09T09:26:48.198Z,14.60
2022-09-09T09:31:58.353Z,14.80
2022-09-09T09:37:09.457Z,15.00
2022-09-09T09:42:23.103Z,15.50
2022-09-09T09:47:30.907Z,15.90
2022-09-09T09:52:38.767Z,16.30
2022-09-09T09:57:46.406Z,16.40
2022-09-09T10:02:54.583Z,16.70
2022-09-09T10:08:13.916Z,17.70
2022-09-09T10:14:05.827Z,18.70
2022-09-09T10:19:37.571Z,19.20
2022-09-09T10:24:57.427Z,18.60
2022-09-09T10:30:22.884Z,18.20
2022-09-09T10:35:41.143Z,17.90
2022-09-09T10:40:58.182Z,17.70
2022-09-09T10:46:29.467Z,17.50
2022-09-09T10:52:00.185Z,17.50
2022-09-09T10:57:26.183Z,17.40
2022-09-09T11:02:36.292Z,17.40
2022-09-09T11:07:54.627Z,17.20
2022-09-09T11:13:06.387Z,17.10
2022-09-09T11:18:17.751Z,16.90
2022-09-09T11:23:29.279Z,16.50
2022-09-09T11:29:16.959Z,16.60
2022-09-09T11:34:50.969Z,16.60
2022-09-09T11:40:21.130Z,16.40
2022-09-09T11:45:30.898Z,16.60
2022-09-09T11:50:42.168Z,16.70
2022-09-09T11:55:49.753Z,17.00
2022-09-09T12:00:56.428Z,16.90
2022-09-09T12:06:24.385Z,17.10
2022-09-09T12:11:33.219Z,17.30
2022-09-09T12:16:41.780Z,17.10
2022-09-09T12:22:26.945Z,17.20
2022-09-09T12:27:39.310Z,17.30
2022-09-09T12:32:48.710Z,17.30
2022-09-09T12:38:04.511Z,17.40
2022-09-09T12:43:27.153Z,17.20
2022-09-09T12:48:42.851Z,17.30
2022-09-09T12:53:52.299Z,17.30
2022-09-09T12:59:02.566Z,17.40
2022-09-09T13:04:21.909Z,17.30
2022-09-09T13:09:28.636Z,17.40
2022-09-09T13:14:40.061Z,17.40
2022-09-09T13:19:48.590Z,17.30
2022-09-09T13:25:14.418Z,17.20
2022-09-09T13:30:39.956Z,17.10
2022-09-09T13:35:59.170Z,17.00
2022-09-09T13:41:09.607Z,17.00
2022-09-09T13:46:37.935Z,17.00
2022-09-09T13:51:52.936Z,16.80
2022-09-09T13:56:59.744Z,16.80
2022-09-09T14:02:06.598Z,16.80
2022-09-09T14:07:16.922Z,17.10
2022-09-09T14:12:24.115Z,17.40
2022-09-09T14:17:50.166Z,17.30
2022-09-09T14:23:02.746Z,17.30
2022-09-09T14:28:06.763Z,17.20
2022-09-09T14:33:16.873Z,17.30
2022-09-09T14:38:23.593Z,17.30
2022-09-09T14:43:31.328Z,17.20
2022-09-09T14:48:40.759Z,17.10
2022-09-09T14:53:48.683Z,17.10
2022-09-09T14:58:58.941Z,17.10
2022-09-09T15:04:08.144Z,17.00
2022-09-09T15:09:14.935Z,17.00
2022-09-09T15:14:25.311Z,17.10
2022-09-09T15:19:30.635Z,17.20
2022-09-09T15:24:38.459Z,17.30
2022-09-09T15:29:46.358Z,17.40
2022-09-09T15:34:54.554Z,17.10
2022-09-09T15:40:02.722Z,17.10
2022-09-09T15:45:11.680Z,17.10
2022-09-09T15:50:18.508Z,17.20
2022-09-09T15:55:28.205Z,17.10
2022-09-09T16:00:35.626Z,17.10
2022-09-09T16:05:42.915Z,17.00
2022-09-09T16:10:49.725Z,17.00
2022-09-09T16:15:59.402Z,17.00
2022-09-09T16:21:07.516Z,16.90
2022-09-09T16:26:19.696Z,16.70
2022-09-09T16:31:30.236Z,16.70
2022-09-09T16:36:40.264Z,16.70
2022-09-09T16:41:51.360Z,16.60
2022-09-09T16:47:00.802Z,16.70
2022-09-09T16:52:06.450Z,16.70
2022-09-09T16:57:13.124Z,16.70
2022-09-09T17:02:19.950Z,16.70
2022-09-09T17:07:26.680Z,16.70
2022-09-09T17:12:33.985Z,16.60
2022-09-09T17:17:40.688Z,16.40
2022-09-09T17:22:47.500Z,16.30
2022-09-09T17:27:54.683Z,16.10
2022-09-09T17:33:01.388Z,16.10
2022-09-09T17:38:08.065Z,16.00
2022-09-09T17:43:16.010Z,15.90
2022-09-09T17:48:22.733Z,15.90
2022-09-09T17:53:30.255Z,15.90
2022-09-09T17:58:41.654Z,15.90
2022-09-09T18:03:51.165Z,15.90
2022-09-09T18:09:01.883Z,15.90
2022-09-09T18:14:10.929Z,15.90
2022-09-09T18:19:22.127Z,15.90
2022-09-09T18:24:28.889Z,15.90
2022-09-09T18:29:35.676Z,15.90
2022-09-09T18:34:43.602Z,15.80
2022-09-09T18:39:50.951Z,15.70
2022-09-09T18:44:58.535Z,15.70
2022-09-09T18:50:05.655Z,15.70
2022-09-09T18:55:13.374Z,15.60
2022-09-09T19:00:20.113Z,15.40
2022-09-09T19:05:28.036Z,15.30
2022-09-09T19:10:39.628Z,15.50
2022-09-09T19:15:46.632Z,15.50
2022-09-09T19:20:53.269Z,15.20
2022-09-09T19:26:06.883Z,15.10
2022-09-09T19:31:15.806Z,15.20
2022-09-09T19:36:23.359Z,15.20
2022-09-09T19:41:36.205Z,15.00
2022-09-09T19:46:46.399Z,15.10
2022-09-09T19:51:53.133Z,15.00
2022-09-09T19:57:01.346Z,15.00
2022-09-09T20:02:08.095Z,15.00
2022-09-09T20:07:15.275Z,15.00
2022-09-09T20:12:22.873Z,14.80
2022-09-09T20:17:29.580Z,15.00
2022-09-09T20:22:37.485Z,14.90
2022-09-09T20:27:45.672Z,14.60
2022-09-09T20:32:52.397Z,14.70
2022-09-09T20:37:59.238Z,14.70
2022-09-09T20:43:08.483Z,14.70
2022-09-09T20:48:15.188Z,14.70
2022-09-09T20:53:23.576Z,14.80
2022-09-09T20:58:35.130Z,14.60
2022-09-09T21:03:42.263Z,14.60
2022-09-09T21:08:52.482Z,14.50
2022-09-09T21:14:00.558Z,14.70
2022-09-09T21:19:07.298Z,14.60
2022-09-09T21:24:13.969Z,14.70
2022-09-09T21:29:21.374Z,14.50
2022-09-09T21:34:28.114Z,14.50
2022-09-09T21:39:36.301Z,14.30
2022-09-09T21:44:42.999Z,14.40
2022-09-09T21:49:49.706Z,14.30
2022-09-09T21:54:56.449Z,14.40
2022-09-09T22:00:03.967Z,14.20
2022-09-09T22:05:11.101Z,14.30
2022-09-09T22:10:19.365Z,14.30
2022-09-09T22:15:26.075Z,14.30
2022-09-09T22:20:36.680Z,14.20
2022-09-09T22:25:44.989Z,14.10
2022-09-09T22:30:51.882Z,14.00
2022-09-09T22:35:59.433Z,13.90
2022-09-09T22:41:07.883Z,13.80
2022-09-09T22:46:15.745Z,13.70
2022-09-09T22:51:22.520Z,13.50
2022-09-09T22:56:29.933Z,13.60
2022-09-09T23:01:37.396Z,13.50
2022-09-09T23:06:45.673Z,13.60
2022-09-09T23:11:52.307Z,13.60
2022-09-09T23:16:59.378Z,13.50
2022-09-09T23:22:07.231Z,13.30
2022-09-09T23:27:14.867Z,13.20
2022-09-09T23:32:23.886Z,13.40
2022-09-09T23:37:32.316Z,13.20
2022-09-09T23:42:39.057Z,13.20
2022-09-09T23:47:46.925Z,13.20
2022-09-09T23:52:55.014Z,13.20
2022-09-09T23:58:03.660Z,13.30
